Time;durP1;ratioP1;P1;durP2;ratioP2;P2;SDS_P1;SDS_P2;PMS_P1;PMS_P2;Temp;Humidity;BMP_temperature;BMP_pressure;BME280_temperature;BME280_humidity;BME280_pressure;Samples;Min_cycle;Max_cycle;Signal;HPM_P1;HPM_P2
2024/04/21 00:00:34;;;;;;;0.30;0.20;;;;;;;7.46;100.00;100515.81;5441144;26;20485;-48
2024/04/21 00:03:00;;;;;;;0.30;0.20;;;;;;;7.46;100.00;100507.00;5427251;26;20655;-49
2024/04/21 00:05:27;;;;;;;0.30;0.20;;;;;;;7.60;100.00;100508.59;5431083;26;20526;-48
2024/04/21 00:07:53;;;;;;;0.30;0.20;;;;;;;7.67;100.00;100504.06;5429054;26;20474;-49
2024/04/21 00:10:20;;;;;;;0.30;0.20;;;;;;;7.48;100.00;100503.44;5452786;26;20521;-48
2024/04/21 00:12:46;;;;;;;0.30;0.20;;;;;;;7.42;100.00;100503.53;5423766;26;20593;-48
2024/04/21 00:15:13;;;;;;;0.30;0.20;;;;;;;7.52;100.00;100505.16;5418593;26;20527;-48
2024/04/21 00:17:40;;;;;;;0.30;0.20;;;;;;;7.58;100.00;100507.72;5436287;26;20465;-48
2024/04/21 00:20:07;;;;;;;0.30;0.20;;;;;;;7.63;100.00;100508.53;5441823;26;20986;-49
2024/04/21 00:22:33;;;;;;;0.30;0.20;;;;;;;7.56;100.00;100504.25;5442775;26;20544;-48
2024/04/21 00:25:00;;;;;;;0.30;0.20;;;;;;;7.64;100.00;100506.75;5452551;26;20526;-48
2024/04/21 00:27:26;;;;;;;0.30;0.20;;;;;;;7.61;100.00;100502.41;5432166;26;20469;-48
2024/04/21 00:29:53;;;;;;;0.30;0.20;;;;;;;7.50;100.00;100508.72;5435749;26;20467;-48
2024/04/21 00:32:19;;;;;;;0.30;0.20;;;;;;;7.62;100.00;100496.22;5450270;26;20513;-48
2024/04/21 00:34:47;;;;;;;0.30;0.20;;;;;;;7.66;100.00;100494.38;5452376;26;20474;-49
2024/04/21 00:37:14;;;;;;;0.30;0.20;;;;;;;7.54;100.00;100503.38;5440512;26;20535;-48
2024/04/21 00:39:41;;;;;;;0.30;0.20;;;;;;;7.38;100.00;100505.31;5427381;26;20532;-48
2024/04/21 00:42:07;;;;;;;0.30;0.20;;;;;;;7.28;100.00;100511.63;5422796;26;20475;-47
2024/04/21 00:44:34;;;;;;;0.30;0.20;;;;;;;7.41;100.00;100502.66;5444438;26;20469;-48
2024/04/21 00:47:01;;;;;;;0.30;0.20;;;;;;;7.22;100.00;100497.59;5446779;26;20533;-48
2024/04/21 00:49:28;;;;;;;0.30;0.20;;;;;;;7.36;100.00;100485.09;5446965;26;20479;-48
2024/04/21 00:51:55;;;;;;;0.30;0.20;;;;;;;7.09;100.00;100492.44;5421919;26;20542;-48
2024/04/21 00:54:21;;;;;;;0.30;0.20;;;;;;;7.06;100.00;100487.19;5422047;26;20530;-48
2024/04/21 00:56:49;;;;;;;0.30;0.20;;;;;;;7.10;100.00;100482.75;5438567;26;20470;-49
2024/04/21 00:59:17;;;;;;;0.30;0.20;;;;;;;7.28;100.00;100485.19;5422444;26;20469;-48
2024/04/21 01:01:45;;;;;;;0.30;0.20;;;;;;;7.35;100.00;100497.44;5436034;26;20856;-48
2024/04/21 01:04:12;;;;;;;0.30;0.20;;;;;;;7.05;100.00;100492.50;5442297;26;20937;-49
2024/04/21 01:06:39;;;;;;;0.30;0.20;;;;;;;7.12;100.00;100496.81;5437446;26;20482;-48
2024/04/21 01:09:06;;;;;;;0.30;0.20;;;;;;;6.85;100.00;100508.53;5445367;26;20538;-48
2024/04/21 01:11:32;;;;;;;0.30;0.20;;;;;;;6.53;100.00;100508.84;5426210;26;21110;-47
2024/04/21 01:13:59;;;;;;;0.30;0.20;;;;;;;6.39;99.34;100502.81;5429194;26;20475;-47
2024/04/21 01:16:26;;;;;;;0.30;0.20;;;;;;;6.44;100.00;100485.16;5437819;26;20466;-49
2024/04/21 01:18:52;;;;;;;0.30;0.20;;;;;;;6.41;96.87;100494.00;5451495;26;20530;-48
2024/04/21 01:21:19;;;;;;;0.30;0.20;;;;;;;6.48;97.40;100501.00;5452642;26;20545;-49
2024/04/21 01:23:45;;;;;;;0.30;0.20;;;;;;;6.22;97.51;100495.91;5420722;26;20947;-47
2024/04/21 01:26:12;;;;;;;0.30;0.20;;;;;;;6.42;97.69;100494.88;5437534;26;20563;-48
2024/04/21 01:28:39;;;;;;;0.30;0.20;;;;;;;6.37;96.05;100494.91;5430723;26;20469;-47
2024/04/21 01:31:05;;;;;;;0.30;0.20;;;;;;;6.41;96.83;100490.47;5439017;26;20465;-47
2024/04/21 01:33:32;;;;;;;0.30;0.20;;;;;;;6.39;96.38;100487.84;5427729;26;20485;-48
2024/04/21 01:35:58;;;;;;;0.30;0.17;;;;;;;6.47;97.39;100493.09;5427498;26;20475;-48
2024/04/21 01:38:25;;;;;;;0.30;0.20;;;;;;;6.20;96.86;100487.13;5432168;26;20473;-48
2024/04/21 01:40:52;;;;;;;0.30;0.20;;;;;;;6.26;97.01;100485.31;5451936;26;20521;-48
2024/04/21 01:43:18;;;;;;;0.30;0.20;;;;;;;6.34;96.46;100494.06;5436409;26;20473;-48
2024/04/21 01:45:45;;;;;;;0.30;0.20;;;;;;;6.21;96.90;100494.16;5448497;26;20486;-47
2024/04/21 01:48:11;;;;;;;0.30;0.20;;;;;;;6.37;96.91;100497.56;5438406;26;20471;-48
2024/04/21 01:50:38;;;;;;;0.30;0.20;;;;;;;6.28;95.96;100494.09;5416633;26;20475;-47
2024/04/21 01:53:05;;;;;;;0.30;0.10;;;;;;;6.66;96.26;100496.41;5419960;26;20486;-48
2024/04/21 01:55:31;;;;;;;0.30;0.20;;;;;;;6.45;96.43;100492.22;5437880;26;20552;-48
2024/04/21 01:57:58;;;;;;;0.30;0.20;;;;;;;6.43;96.86;100484.28;5431010;26;20482;-47
2024/04/21 02:00:24;;;;;;;0.30;0.20;;;;;;;6.49;97.54;100486.03;5434837;26;20537;-49
2024/04/21 02:02:51;;;;;;;0.30;0.20;;;;;;;6.51;97.44;100481.59;5437935;26;20474;-48
2024/04/21 02:05:17;;;;;;;0.30;0.20;;;;;;;6.52;98.41;100475.41;5429225;26;20898;-48
2024/04/21 02:07:44;;;;;;;0.30;0.20;;;;;;;6.47;98.69;100485.16;5449625;26;20555;-48
2024/04/21 02:10:11;;;;;;;0.30;0.10;;;;;;;6.45;98.76;100482.53;5436001;26;20467;-48
2024/04/21 02:12:37;;;;;;;0.30;0.20;;;;;;;6.44;98.02;100479.88;5451239;26;20822;-48
2024/04/21 02:15:04;;;;;;;0.30;0.20;;;;;;;6.61;98.12;100471.84;5455590;26;20469;-48
2024/04/21 02:17:30;;;;;;;0.30;0.20;;;;;;;6.76;98.54;100474.31;5451706;26;21065;-48
2024/04/21 02:19:57;;;;;;;0.30;0.20;;;;;;;6.82;99.84;100469.84;5454392;26;20526;-48
2024/04/21 02:22:24;;;;;;;0.30;0.20;;;;;;;6.85;100.00;100476.84;5444321;26;20582;-49
2024/04/21 02:24:50;;;;;;;0.30;0.20;;;;;;;6.92;100.00;100469.75;5442121;26;20481;-48
2024/04/21 02:27:17;;;;;;;0.30;0.20;;;;;;;6.99;100.00;100463.47;5446092;26;20467;-49
2024/04/21 02:29:44;;;;;;;0.30;0.20;;;;;;;6.83;99.46;100458.38;5428402;26;20474;-48
2024/04/21 02:32:10;;;;;;;0.30;0.20;;;;;;;6.89;98.50;100456.56;5445693;26;20592;-49
2024/04/21 02:34:37;;;;;;;0.30;0.20;;;;;;;6.70;99.04;100462.03;5427861;26;20566;-48
2024/04/21 02:37:03;;;;;;;0.30;0.20;;;;;;;6.63;99.30;100463.00;5426663;26;20473;-48
2024/04/21 02:39:30;;;;;;;0.30;0.20;;;;;;;6.72;98.45;100460.28;5443335;26;20485;-48
2024/04/21 02:41:57;;;;;;;0.30;0.20;;;;;;;6.67;98.44;100458.56;5451222;26;20478;-48
2024/04/21 02:44:24;;;;;;;0.30;0.20;;;;;;;6.59;98.12;100463.06;5443711;26;20534;-48
2024/04/21 02:46:50;;;;;;;0.30;0.20;;;;;;;6.48;97.08;100461.38;5433120;26;20474;-49
2024/04/21 02:49:17;;;;;;;0.30;0.20;;;;;;;6.31;97.73;100458.03;5432032;26;20475;-48
2024/04/21 02:51:44;;;;;;;0.30;0.20;;;;;;;6.37;97.82;100460.59;5422961;26;20601;-48
2024/04/21 02:54:10;;;;;;;0.30;0.20;;;;;;;6.15;97.61;100449.31;5420777;26;20555;-48
2024/04/21 02:56:37;;;;;;;0.30;0.20;;;;;;;6.20;97.31;100450.19;5431336;26;20522;-48
2024/04/21 02:59:04;;;;;;;0.30;0.20;;;;;;;6.18;96.91;100453.72;5437971;26;20549;-47
2024/04/21 03:01:30;;;;;;;0.30;0.20;;;;;;;6.27;96.13;100447.47;5397035;26;20606;-48
2024/04/21 03:03:57;;;;;;;0.30;0.10;;;;;;;6.29;95.79;100453.63;5418148;26;20539;-49
2024/04/21 03:06:24;;;;;;;0.30;0.20;;;;;;;6.06;95.65;100457.34;5444864;26;20540;-48
2024/04/21 03:08:51;;;;;;;0.30;0.20;;;;;;;6.26;95.21;100457.16;5450549;26;20469;-48
2024/04/21 03:11:17;;;;;;;0.30;0.20;;;;;;;6.16;96.15;100450.19;5431625;26;20469;-47
2024/04/21 03:13:46;;;;;;;0.30;0.20;;;;;;;6.32;96.71;100456.25;5421811;26;20494;-48
2024/04/21 03:16:12;;;;;;;0.30;0.17;;;;;;;6.23;96.45;100446.63;5454334;26;21010;-48
2024/04/21 03:18:39;;;;;;;0.30;0.20;;;;;;;6.29;97.33;100446.56;5442256;26;20525;-48
2024/04/21 03:21:05;;;;;;;0.30;0.20;;;;;;;6.34;96.09;100444.78;5416626;26;20469;-48
2024/04/21 03:23:32;;;;;;;0.30;0.20;;;;;;;6.36;96.82;100450.06;5429464;26;20474;-48
2024/04/21 03:25:58;;;;;;;0.30;0.20;;;;;;;6.27;96.46;100451.00;5423300;26;20470;-48
2024/04/21 03:28:25;;;;;;;0.30;0.20;;;;;;;6.31;96.35;100451.88;5435316;26;20514;-48
2024/04/21 03:30:56;;;;;;;0.30;0.20;;;;;;;6.41;96.30;100450.88;5437017;26;20474;-48
2024/04/21 03:33:23;;;;;;;0.30;0.20;;;;;;;6.43;97.08;100451.72;5432906;26;20482;-48
2024/04/21 03:36:10;;;;;;;0.30;0.20;;;;;;;6.39;96.59;100450.88;5440041;26;20474;-48
2024/04/21 03:38:38;;;;;;;0.30;0.20;;;;;;;6.41;97.09;100451.75;5436851;26;20489;-48
2024/04/21 03:41:05;;;;;;;0.30;0.20;;;;;;;6.44;97.62;100448.19;5448334;26;20477;-48
2024/04/21 03:43:36;;;;;;;0.30;0.13;;;;;;;6.33;96.69;100450.97;5436077;26;20588;-48
2024/04/21 03:46:02;;;;;;;0.30;0.20;;;;;;;6.32;96.34;100443.94;5448757;26;20532;-49
2024/04/21 03:48:29;;;;;;;0.30;0.20;;;;;;;6.15;96.38;100451.09;5440121;26;20526;-48
2024/04/21 03:50:56;;;;;;;0.30;0.20;;;;;;;6.21;97.01;100446.66;5420602;26;20851;-48
2024/04/21 03:53:23;;;;;;;0.30;0.20;;;;;;;6.17;98.23;100439.66;5419454;26;20543;-48
2024/04/21 03:55:49;;;;;;;0.30;0.20;;;;;;;6.02;98.11;100445.03;5443930;26;20860;-47
2024/04/21 03:58:16;;;;;;;0.30;0.10;;;;;;;6.03;97.19;100440.63;5440161;26;20470;-49
2024/04/21 04:00:45;;;;;;;0.30;0.20;;;;;;;6.01;98.12;100439.78;5447739;26;20463;-48
2024/04/21 04:03:11;;;;;;;0.30;0.20;;;;;;;5.91;97.12;100442.50;5434457;26;20534;-47
2024/04/21 04:05:38;;;;;;;0.30;0.20;;;;;;;5.86;97.65;100438.97;5436496;26;20523;-47
2024/04/21 04:08:05;;;;;;;0.30;0.20;;;;;;;5.83;97.28;100439.00;5447272;26;20470;-48
2024/04/21 04:10:31;;;;;;;0.30;0.17;;;;;;;5.89;97.47;100438.06;5453913;26;20485;-48
2024/04/21 04:12:58;;;;;;;0.30;0.20;;;;;;;5.92;97.74;100441.59;5449623;26;20494;-47
2024/04/21 04:15:24;;;;;;;0.30;0.20;;;;;;;6.00;97.21;100444.16;5454095;26;20890;-48
2024/04/21 04:17:51;;;;;;;0.30;0.20;;;;;;;6.09;96.94;100448.50;5418616;26;21066;-47
2024/04/21 04:20:18;;;;;;;0.30;0.20;;;;;;;6.18;96.87;100443.19;5420089;26;20514;-48
2024/04/21 04:22:44;;;;;;;0.30;0.20;;;;;;;6.34;96.66;100451.84;5452895;26;20486;-48
2024/04/21 04:25:11;;;;;;;0.30;0.20;;;;;;;6.01;96.69;100445.03;5445007;26;20808;-48
2024/04/21 04:27:38;;;;;;;0.30;0.20;;;;;;;6.13;97.61;100455.50;5446023;26;21022;-48
2024/04/21 04:30:05;;;;;;;0.30;0.10;;;;;;;5.91;97.22;100457.44;5451474;26;20469;-47
2024/04/21 04:32:31;;;;;;;0.30;0.20;;;;;;;6.06;97.14;100452.06;5448410;26;20477;-48
2024/04/21 04:34:58;;;;;;;0.30;0.17;;;;;;;5.89;98.00;100461.81;5430453;26;20466;-48
2024/04/21 04:37:25;;;;;;;0.30;0.20;;;;;;;5.74;98.68;100456.63;5437651;26;21108;-47
2024/04/21 04:39:51;;;;;;;0.30;0.20;;;;;;;5.52;100.00;100462.03;5448148;26;21074;-47
2024/04/21 04:42:18;;;;;;;0.30;0.20;;;;;;;5.32;100.00;100458.63;5453820;26;20458;-48
2024/04/21 04:44:44;;;;;;;0.30;0.20;;;;;;;5.28;100.00;100460.41;5436338;26;20526;-48
2024/04/21 04:47:11;;;;;;;0.30;0.20;;;;;;;5.38;100.00;100461.25;5410804;26;20592;-47
2024/04/21 04:49:37;;;;;;;0.30;0.20;;;;;;;5.37;100.00;100456.84;5436523;26;20471;-47
2024/04/21 04:52:04;;;;;;;0.30;0.20;;;;;;;5.54;100.00;100462.03;5420395;26;20482;-47
2024/04/21 04:54:31;;;;;;;0.30;0.20;;;;;;;5.58;100.00;100458.50;5424528;26;20524;-47
2024/04/21 04:56:58;;;;;;;0.30;0.20;;;;;;;5.60;100.00;100457.59;5443410;26;21054;-47
2024/04/21 04:59:24;;;;;;;0.30;0.20;;;;;;;5.59;100.00;100447.06;5418157;26;20465;-47
2024/04/21 05:01:51;;;;;;;0.30;0.20;;;;;;;5.59;100.00;100445.28;5445312;26;20470;-48
2024/04/21 05:04:18;;;;;;;0.30;0.20;;;;;;;5.57;100.00;100441.78;5433982;26;21008;-47
2024/04/21 05:06:44;;;;;;;0.30;0.20;;;;;;;5.63;100.00;100447.06;5421632;26;20474;-47
2024/04/21 05:09:11;;;;;;;0.30;0.10;;;;;;;5.89;100.00;100440.69;5414193;26;20477;-47
2024/04/21 05:11:37;;;;;;;0.30;0.10;;;;;;;6.27;98.99;100444.84;5422470;26;20473;-47
2024/04/21 05:14:04;;;;;;;0.30;0.20;;;;;;;6.50;97.21;100451.66;5453657;26;20587;-47
2024/04/21 05:16:31;;;;;;;0.30;0.20;;;;;;;6.23;96.48;100455.44;5453412;26;20525;-47
2024/04/21 05:18:57;;;;;;;0.30;0.17;;;;;;;6.37;96.52;100455.31;5445896;26;20475;-48
2024/04/21 05:21:24;;;;;;;0.30;0.20;;;;;;;6.31;96.79;100458.03;5437772;26;20473;-47
2024/04/21 05:23:50;;;;;;;0.30;0.20;;;;;;;6.22;96.05;100460.72;5453209;26;20597;-47
2024/04/21 05:26:17;;;;;;;0.30;0.10;;;;;;;5.94;97.82;100463.56;5453376;26;20473;-47
2024/04/21 05:28:44;;;;;;;0.30;0.20;;;;;;;5.76;98.64;100465.44;5405101;26;20465;-48
2024/04/21 05:31:15;;;;;;;0.30;0.10;;;;;;;5.56;98.38;100479.59;5453182;26;21079;-47
2024/04/21 05:33:42;;;;;;;0.30;0.10;;;;;;;5.76;97.81;100473.34;5442124;26;20826;-48
2024/04/21 05:36:09;;;;;;;0.30;0.20;;;;;;;5.85;97.60;100471.50;5428545;26;20479;-47
2024/04/21 05:38:35;;;;;;;0.30;0.13;;;;;;;6.00;97.32;100474.97;5427976;26;20466;-48
2024/04/21 05:41:02;;;;;;;0.30;0.13;;;;;;;6.46;95.62;100480.78;5443518;26;20511;-47
2024/04/21 05:43:28;;;;;;;0.30;0.10;;;;;;;7.03;93.52;100479.31;5446457;26;20534;-47
2024/04/21 05:46:02;;;;;;;0.30;0.20;;;;;;;7.35;91.74;100481.56;5456335;26;20466;-47
2024/04/21 05:48:30;;;;;;;0.30;0.20;;;;;;;7.03;90.59;100481.94;5439859;26;21025;-47
2024/04/21 05:50:56;;;;;;;0.30;0.20;;;;;;;7.33;90.87;100486.00;5431912;26;20482;-48
2024/04/21 05:53:23;;;;;;;0.30;0.20;;;;;;;7.61;89.75;100483.00;5423534;26;21027;-47
2024/04/21 05:55:50;;;;;;;0.30;0.17;;;;;;;7.21;90.49;100485.28;5430904;26;20475;-48
2024/04/21 05:58:16;;;;;;;0.30;0.20;;;;;;;7.21;89.11;100486.16;5457643;26;20469;-47
2024/04/21 06:00:43;;;;;;;0.30;0.20;;;;;;;7.09;89.53;100478.34;5457328;26;20591;-46
2024/04/21 06:03:09;;;;;;;0.30;0.17;;;;;;;6.66;88.72;100476.16;5444919;26;20563;-47
2024/04/21 06:05:36;;;;;;;0.30;0.20;;;;;;;6.69;90.87;100483.19;5457659;26;20474;-48
2024/04/21 06:08:03;;;;;;;0.30;0.20;;;;;;;6.90;91.25;100488.25;5437839;26;20471;-47
2024/04/21 06:10:30;;;;;;;0.30;0.20;;;;;;;6.69;92.38;100485.81;5452688;26;20869;-47
2024/04/21 06:12:57;;;;;;;0.30;0.20;;;;;;;6.63;92.99;100485.91;5460478;26;20481;-48
2024/04/21 06:15:24;;;;;;;0.30;0.20;;;;;;;6.66;92.13;100478.81;5442094;26;20479;-48
2024/04/21 06:17:50;;;;;;;0.30;0.17;;;;;;;6.81;92.71;100481.28;5470014;26;20512;-48
2024/04/21 06:20:17;;;;;;;0.30;0.20;;;;;;;7.09;92.73;100488.94;5470050;26;20473;-48
2024/04/21 06:22:43;;;;;;;0.30;0.20;;;;;;;7.09;91.73;100486.28;5453872;26;20535;-48
2024/04/21 06:25:10;;;;;;;0.30;0.20;;;;;;;7.24;92.19;100494.03;5460825;26;21131;-47
2024/04/21 06:27:36;;;;;;;0.30;0.20;;;;;;;7.17;92.07;100487.09;5464429;26;20561;-46
2024/04/21 06:30:03;;;;;;;0.30;0.20;;;;;;;7.05;92.50;100479.28;5465373;26;20488;-48
2024/04/21 06:32:30;;;;;;;0.30;0.20;;;;;;;7.28;92.22;100477.25;5447277;26;20473;-47
2024/04/21 06:34:56;;;;;;;0.30;0.20;;;;;;;7.27;92.74;100478.16;5463190;26;20572;-48
2024/04/21 06:37:23;;;;;;;0.30;0.20;;;;;;;6.71;93.09;100481.38;5447269;26;21074;-47
2024/04/21 06:39:50;;;;;;;0.30;0.20;;;;;;;6.86;93.65;100488.31;5460977;26;20461;-48
2024/04/21 06:42:16;;;;;;;0.30;0.20;;;;;;;6.52;93.06;100483.34;5446905;26;20527;-47
2024/04/21 06:44:43;;;;;;;0.30;0.10;;;;;;;6.51;94.08;100484.22;5449248;26;20474;-47
2024/04/21 06:47:11;;;;;;;0.30;0.20;;;;;;;6.49;93.78;100489.53;5455202;26;20470;-47
2024/04/21 06:49:38;;;;;;;0.30;0.17;;;;;;;6.43;94.63;100479.00;5446788;26;20486;-47
2024/04/21 06:52:05;;;;;;;0.30;0.20;;;;;;;6.14;94.62;100486.28;5423136;26;20876;-47
2024/04/21 06:54:32;;;;;;;0.30;0.20;;;;;;;6.21;94.41;100488.00;5426358;26;20478;-47
2024/04/21 06:56:59;;;;;;;0.30;0.20;;;;;;;6.27;94.42;100492.34;5437516;26;20475;-47
2024/04/21 06:59:26;;;;;;;0.30;0.10;;;;;;;6.53;93.76;100487.72;5451053;26;20577;-47
2024/04/21 07:01:52;;;;;;;0.30;0.20;;;;;;;6.42;92.13;100489.59;5441598;26;21008;-47
2024/04/21 07:04:19;;;;;;;0.30;0.10;;;;;;;6.58;91.76;100485.03;5435873;26;20474;-47
2024/04/21 07:06:45;;;;;;;0.30;0.20;;;;;;;6.83;92.23;100484.78;5446572;26;20490;-47
2024/04/21 07:09:12;;;;;;;0.30;0.20;;;;;;;6.91;90.71;100481.22;5449181;26;20531;-48
2024/04/21 07:11:38;;;;;;;0.30;0.20;;;;;;;6.94;90.11;100478.53;5440000;26;20466;-47
2024/04/21 07:14:05;;;;;;;0.30;0.20;;;;;;;7.09;89.18;100476.59;5446628;26;20482;-47
2024/04/21 07:16:45;;;;;;;0.30;0.20;;;;;;;7.10;89.50;100480.97;5431036;26;21015;-47
2024/04/21 07:19:12;;;;;;;0.30;0.20;;;;;;;7.21;88.38;100480.84;5450010;26;20474;-48
2024/04/21 07:21:39;;;;;;;0.30;0.20;;;;;;;7.37;87.86;100470.97;5454103;26;20470;-47
2024/04/21 07:24:06;;;;;;;0.30;0.20;;;;;;;7.48;87.31;100465.53;5454864;26;20474;-46
2024/04/21 07:26:32;;;;;;;0.30;0.20;;;;;;;7.35;86.68;100484.22;5444815;26;20478;-47
2024/04/21 07:29:00;;;;;;;0.30;0.20;;;;;;;7.36;86.90;100487.72;5441985;26;20476;-47
2024/04/21 07:31:26;;;;;;;0.30;0.20;;;;;;;7.33;86.16;100486.00;5437064;26;20589;-47
2024/04/21 07:33:53;;;;;;;0.30;0.20;;;;;;;7.27;85.47;100485.22;5453742;26;20559;-48
2024/04/21 07:36:19;;;;;;;0.30;0.20;;;;;;;7.39;83.71;100491.19;5433888;26;20520;-47
2024/04/21 07:38:50;;;;;;;0.30;0.20;;;;;;;7.47;84.23;100487.59;5446630;26;20483;-47
2024/04/21 07:41:17;;;;;;;0.30;0.20;;;;;;;7.44;83.36;100483.22;5421974;26;20475;-47
2024/04/21 07:43:44;;;;;;;0.30;0.20;;;;;;;7.39;85.03;100501.78;5399611;26;21018;-47
2024/04/21 07:46:10;;;;;;;0.30;0.20;;;;;;;7.31;84.01;100495.72;5392383;26;20458;-46
2024/04/21 07:48:37;;;;;;;0.30;0.20;;;;;;;7.09;82.69;100491.56;5442269;26;20548;-47
2024/04/21 07:51:03;;;;;;;0.30;0.20;;;;;;;7.08;83.24;100498.63;5419981;26;20479;-46
2024/04/21 07:53:30;;;;;;;0.30;0.20;;;;;;;6.97;82.40;100500.50;5418180;26;20491;-49
2024/04/21 07:55:56;;;;;;;0.30;0.20;;;;;;;7.06;82.29;100496.91;5446101;26;20954;-49
2024/04/21 07:58:23;;;;;;;0.30;0.20;;;;;;;7.37;81.69;100495.63;5453897;26;20473;-49
2024/04/21 08:00:50;;;;;;;0.30;0.20;;;;;;;7.53;81.25;100498.97;5453577;26;21033;-50
2024/04/21 08:03:16;;;;;;;0.30;0.20;;;;;;;7.59;80.02;100495.38;5441602;26;20489;-50
2024/04/21 08:05:43;;;;;;;0.30;0.20;;;;;;;7.39;80.87;100493.84;5453156;26;21320;-48
2024/04/21 08:08:09;;;;;;;0.30;0.20;;;;;;;7.20;81.00;100500.25;5450650;26;20477;-48
2024/04/21 08:10:36;;;;;;;0.30;0.17;;;;;;;7.55;79.94;100491.03;5453201;26;20465;-49
2024/04/21 08:13:19;;;;;;;0.30;0.20;;;;;;;7.39;79.22;100500.91;5453380;26;20990;-49
2024/04/21 08:15:45;;;;;;;0.30;0.20;;;;;;;7.60;79.93;100494.47;5453569;26;20802;-48
2024/04/21 08:18:12;;;;;;;0.30;0.20;;;;;;;7.58;78.20;100504.22;5453429;26;20473;-48
2024/04/21 08:20:39;;;;;;;0.30;0.20;;;;;;;7.20;79.64;100504.66;5454038;26;20601;-48
2024/04/21 08:23:05;;;;;;;0.30;0.20;;;;;;;7.12;79.57;100513.53;5453311;26;20830;-48
2024/04/21 08:25:32;;;;;;;0.30;0.20;;;;;;;7.26;78.82;100525.72;5453392;26;21109;-48
2024/04/21 08:27:58;;;;;;;0.30;0.20;;;;;;;7.52;78.59;100521.00;5453304;26;20493;-49
2024/04/21 08:30:25;;;;;;;0.30;0.20;;;;;;;7.72;77.26;100523.41;5452934;26;20509;-49
2024/04/21 08:32:51;;;;;;;0.30;0.20;;;;;;;7.75;77.29;100514.56;5453160;26;20478;-49
2024/04/21 08:35:18;;;;;;;0.30;0.20;;;;;;;7.59;76.53;100522.72;5452734;26;20930;-48
2024/04/21 08:37:45;;;;;;;0.30;0.20;;;;;;;7.70;77.18;100518.16;5451290;26;20473;-48
2024/04/21 08:40:11;;;;;;;0.30;0.20;;;;;;;7.32;75.97;100523.91;5452844;26;21010;-48
2024/04/21 08:42:41;;;;;;;0.30;0.20;;;;;;;7.22;77.88;100518.75;5452864;26;20533;-49
2024/04/21 08:45:08;;;;;;;0.30;0.10;;;;;;;7.31;80.49;100518.66;5452999;26;20469;-48
2024/04/21 08:47:35;;;;;;;0.30;0.20;;;;;;;7.07;78.97;100528.59;5423661;26;20475;-48
2024/04/21 08:50:02;;;;;;;0.30;0.20;;;;;;;7.15;79.66;100532.94;5434865;26;20531;-55
2024/04/21 08:52:32;;;;;;;0.30;0.20;;;;;;;7.33;79.14;100533.59;5421516;26;20490;-49
2024/04/21 08:54:59;;;;;;;0.30;0.20;;;;;;;7.28;80.43;100537.19;5431386;26;20583;-49
2024/04/21 08:57:26;;;;;;;0.30;0.20;;;;;;;7.29;81.43;100533.66;5452721;26;20521;-49
2024/04/21 08:59:58;;;;;;;0.30;0.10;;;;;;;7.04;82.46;100541.84;5447802;26;20510;-49
2024/04/21 09:02:27;;;;;;;0.30;0.20;;;;;;;7.06;81.98;100539.19;5428841;26;20574;-49
2024/04/21 09:04:57;;;;;;;0.30;0.20;;;;;;;6.86;82.39;100543.81;5425022;26;20914;-49
2024/04/21 09:07:24;;;;;;;0.30;0.10;;;;;;;7.19;83.77;100542.56;5440269;26;20478;-49
2024/04/21 09:09:50;;;;;;;0.30;0.10;;;;;;;7.36;83.76;100546.78;5434069;26;20466;-49
2024/04/21 09:12:17;;;;;;;0.30;0.20;;;;;;;7.10;83.49;100554.09;5452250;26;20485;-49
2024/04/21 09:14:47;;;;;;;0.30;0.20;;;;;;;7.16;83.24;100561.13;5452718;26;20481;-49
2024/04/21 09:17:14;;;;;;;0.30;0.20;;;;;;;6.90;85.26;100556.09;5453923;26;20469;-49
2024/04/21 09:19:40;;;;;;;0.30;0.20;;;;;;;6.98;88.21;100556.88;5433960;26;20527;-49
2024/04/21 09:22:08;;;;;;;0.30;0.20;;;;;;;6.73;89.44;100559.75;5450413;26;20481;-49
2024/04/21 09:24:35;;;;;;;0.30;0.20;;;;;;;6.45;92.71;100563.50;5436844;26;20897;-49
2024/04/21 09:27:01;;;;;;;0.30;0.20;;;;;;;6.74;93.61;100564.16;5433542;26;20564;-49
2024/04/21 09:29:28;;;;;;;0.30;0.17;;;;;;;6.36;95.25;100560.94;5454554;26;20473;-48
2024/04/21 09:31:54;;;;;;;0.30;0.20;;;;;;;6.27;97.10;100567.13;5449590;26;21013;-49
2024/04/21 09:34:21;;;;;;;0.30;0.10;;;;;;;6.22;96.99;100571.56;5451920;26;21080;-49
2024/04/21 09:36:49;;;;;;;0.30;0.20;;;;;;;6.24;97.98;100568.03;5426054;26;21006;-50
2024/04/21 09:39:15;;;;;;;0.30;0.20;;;;;;;6.23;98.68;100570.69;5440306;26;21097;-49
2024/04/21 09:41:50;;;;;;;0.30;0.20;;;;;;;6.47;99.52;100577.56;5451513;26;20469;-49
2024/04/21 09:44:18;;;;;;;0.30;0.20;;;;;;;6.36;100.00;100576.78;5454690;26;20473;-49
2024/04/21 09:46:47;;;;;;;0.30;0.17;;;;;;;6.31;100.00;100570.66;5455751;26;20576;-49
2024/04/21 09:49:16;;;;;;;0.30;0.13;;;;;;;6.16;100.00;100580.41;5453517;26;20525;-49
2024/04/21 09:51:43;;;;;;;0.30;0.10;;;;;;;5.91;100.00;100577.03;5424667;26;20487;-49
2024/04/21 09:54:12;;;;;;;0.50;0.50;;;;;;;5.94;100.00;100577.00;5421080;26;20474;-49
2024/04/21 09:56:40;;;;;;;0.30;0.20;;;;;;;5.91;100.00;100581.44;5455349;26;20477;-49
2024/04/21 09:59:11;;;;;;;0.30;0.20;;;;;;;6.24;100.00;100575.06;5446023;26;20526;-52
2024/04/21 10:01:40;;;;;;;0.30;0.10;;;;;;;5.96;100.00;100578.78;5416319;26;20487;-49
2024/04/21 10:04:14;;;;;;;0.30;0.10;;;;;;;6.37;100.00;100565.31;5455416;26;21006;-49
2024/04/21 10:06:41;;;;;;;0.30;0.10;;;;;;;6.39;100.00;100568.81;5455128;26;20529;-49
2024/04/21 10:09:10;;;;;;;0.30;0.20;;;;;;;6.14;100.00;100571.63;5452420;26;20469;-49
2024/04/21 10:11:36;;;;;;;0.30;0.10;;;;;;;6.15;99.84;100578.63;5455753;26;20513;-49
2024/04/21 10:14:04;;;;;;;0.30;0.20;;;;;;;5.95;100.00;100580.53;5455310;26;20469;-49
2024/04/21 10:16:31;;;;;;;0.30;0.20;;;;;;;6.04;100.00;100580.50;5455545;26;20823;-49
2024/04/21 10:19:05;;;;;;;0.30;0.20;;;;;;;5.78;100.00;100584.97;5453476;26;20474;-48
2024/04/21 10:21:32;;;;;;;0.30;0.10;;;;;;;5.57;100.00;100588.56;5446303;26;20566;-49
2024/04/21 10:23:59;;;;;;;0.30;0.20;;;;;;;5.57;100.00;100596.47;5437742;26;20533;-48
2024/04/21 10:26:26;;;;;;;0.30;0.20;;;;;;;5.13;100.00;100607.13;5455070;26;20512;-49
2024/04/21 10:28:53;;;;;;;0.30;0.20;;;;;;;5.02;100.00;100610.66;5407494;26;21034;-50
2024/04/21 10:31:27;;;;;;;0.30;0.20;;;;;;;5.12;100.00;100621.19;5453955;26;20496;-49
2024/04/21 10:34:08;;;;;;;0.30;0.13;;;;;;;4.92;100.00;100615.91;5455277;26;20599;-49
2024/04/21 10:36:43;;;;;;;0.30;0.20;;;;;;;5.14;100.00;100616.78;5433341;26;20477;-49
2024/04/21 10:39:10;;;;;;;0.30;0.20;;;;;;;5.18;100.00;100616.78;5455517;26;20470;-49
2024/04/21 10:41:46;;;;;;;0.30;0.20;;;;;;;4.93;100.00;100629.06;5455314;26;20473;-49
2024/04/21 10:44:12;;;;;;;0.30;0.20;;;;;;;5.24;100.00;100627.31;5456780;26;20492;-49
2024/04/21 10:46:39;;;;;;;0.30;0.10;;;;;;;5.23;100.00;100624.69;5456711;26;20530;-49
2024/04/21 10:49:06;;;;;;;0.30;0.20;;;;;;;5.33;100.00;100631.69;5452183;26;20478;-49
2024/04/21 10:51:33;;;;;;;0.30;0.20;;;;;;;5.24;100.00;100626.44;5422355;26;20479;-49
2024/04/21 10:54:00;;;;;;;0.30;0.20;;;;;;;5.36;100.00;100623.78;5418687;26;20478;-49
2024/04/21 10:56:26;;;;;;;0.30;0.10;;;;;;;5.57;100.00;100629.00;5454501;26;20583;-50
2024/04/21 10:58:54;;;;;;;0.30;0.20;;;;;;;5.73;100.00;100636.84;5454587;26;20474;-49
2024/04/21 11:01:24;;;;;;;0.30;0.10;;;;;;;5.61;100.00;100632.50;5444039;26;20481;-49
2024/04/21 11:03:51;;;;;;;0.30;0.20;;;;;;;5.50;100.00;100634.31;5430635;26;20601;-49
2024/04/21 11:06:18;;;;;;;0.30;0.10;;;;;;;5.29;100.00;100638.72;5454316;26;20470;-49
2024/04/21 11:08:47;;;;;;;0.30;0.10;;;;;;;5.59;100.00;100640.41;5454260;26;20573;-50
2024/04/21 11:11:16;;;;;;;0.30;0.17;;;;;;;5.47;100.00;100639.56;5454420;26;20575;-49
2024/04/21 11:13:42;;;;;;;0.30;0.10;;;;;;;5.65;100.00;100640.41;5423041;26;20526;-49
2024/04/21 11:16:12;;;;;;;0.30;0.20;;;;;;;5.54;100.00;100647.47;5430481;26;21293;-49
2024/04/21 11:18:39;;;;;;;0.30;0.10;;;;;;;5.73;100.00;100647.41;5424302;26;20475;-49
2024/04/21 11:21:06;;;;;;;0.30;0.20;;;;;;;5.63;100.00;100647.44;5439828;26;20483;-49
2024/04/21 11:23:33;;;;;;;0.30;0.17;;;;;;;5.77;100.00;100644.78;5430950;26;20473;-50
2024/04/21 11:26:01;;;;;;;0.30;0.13;;;;;;;5.59;100.00;100650.06;5430508;26;20475;-51
2024/04/21 11:28:29;;;;;;;0.30;0.10;;;;;;;5.83;100.00;100655.28;5432322;26;21070;-50
2024/04/21 11:31:03;;;;;;;0.30;0.20;;;;;;;5.83;100.00;100651.78;5448430;26;20541;-51